createdAt,value
2023-08-12T00:00:22.815Z,14.54
2023-08-12T00:02:50.050Z,14.55
2023-08-12T00:05:17.049Z,14.48
2023-08-12T00:07:44.134Z,14.43
2023-08-12T00:10:12.718Z,14.43
2023-08-12T00:12:40.732Z,14.54
2023-08-12T00:15:09.450Z,14.51
2023-08-12T00:17:42.512Z,14.42
2023-08-12T00:20:12.481Z,14.32
2023-08-12T00:22:40.010Z,14.29
2023-08-12T00:25:07.741Z,14.31
2023-08-12T00:27:35.051Z,14.29
2023-08-12T00:30:02.703Z,14.27
2023-08-12T00:32:29.652Z,14.32
2023-08-12T00:34:56.715Z,14.24
2023-08-12T00:37:24.111Z,14.21
2023-08-12T00:39:51.434Z,14.07
2023-08-12T00:42:18.301Z,14.15
2023-08-12T00:44:45.284Z,14.09
2023-08-12T00:47:12.472Z,14.04
2023-08-12T00:49:41.244Z,14.02
2023-08-12T00:52:08.156Z,13.93
2023-08-12T00:54:35.135Z,13.93
2023-08-12T00:57:02.151Z,13.81
2023-08-12T00:59:29.948Z,13.79
2023-08-12T01:01:57.080Z,13.65
2023-08-12T01:04:23.949Z,13.66
2023-08-12T01:06:50.817Z,13.75
2023-08-12T01:09:17.908Z,13.74
2023-08-12T01:12:03.324Z,13.72
2023-08-12T01:14:50.864Z,13.59
2023-08-12T01:17:18.550Z,13.66
2023-08-12T01:19:48.796Z,13.51
2023-08-12T01:22:17.796Z,13.39
2023-08-12T01:24:46.030Z,13.43
2023-08-12T01:27:14.605Z,13.35
2023-08-12T01:29:47.729Z,13.48
2023-08-12T01:32:54.330Z,13.40
2023-08-12T01:35:26.282Z,13.22
2023-08-12T01:37:55.120Z,13.24
2023-08-12T01:40:22.779Z,13.31
2023-08-12T01:42:49.799Z,13.40
2023-08-12T01:45:17.009Z,13.35
2023-08-12T01:47:44.973Z,13.28
2023-08-12T01:50:12.076Z,13.34
2023-08-12T01:52:39.012Z,13.31
2023-08-12T01:55:06.096Z,13.31
2023-08-12T01:57:32.996Z,13.37
2023-08-12T02:00:00.095Z,13.32
2023-08-12T02:02:27.046Z,13.32
2023-08-12T02:04:53.944Z,13.30
2023-08-12T02:07:20.851Z,13.31
2023-08-12T02:09:47.956Z,13.29
2023-08-12T02:12:14.893Z,13.26
2023-08-12T02:14:41.700Z,13.23
2023-08-12T02:17:08.710Z,13.21
2023-08-12T02:19:36.040Z,13.22
2023-08-12T02:22:04.773Z,13.21
2023-08-12T02:24:31.925Z,13.22
2023-08-12T02:26:58.839Z,13.19
2023-08-12T02:29:25.744Z,13.13
2023-08-12T02:31:52.731Z,13.07
2023-08-12T02:34:19.734Z,13.08
2023-08-12T02:36:46.561Z,13.05
2023-08-12T02:39:13.686Z,13.04
2023-08-12T02:41:40.569Z,13.05
2023-08-12T02:44:07.488Z,12.98
2023-08-12T02:46:34.405Z,13.01
2023-08-12T02:49:01.332Z,12.98
2023-08-12T02:51:28.179Z,12.99
2023-08-12T02:53:55.077Z,12.87
2023-08-12T02:56:21.938Z,12.88
2023-08-12T02:58:49.215Z,12.86
2023-08-12T03:01:17.200Z,12.73
2023-08-12T03:03:44.259Z,12.63
2023-08-12T03:06:11.398Z,12.72
2023-08-12T03:08:38.295Z,12.75
2023-08-12T03:11:05.226Z,12.78
2023-08-12T03:13:32.352Z,12.83
2023-08-12T03:15:59.214Z,12.82
2023-08-12T03:18:26.197Z,12.74
2023-08-12T03:20:53.142Z,12.69
2023-08-12T03:23:20.009Z,12.70
2023-08-12T03:25:48.720Z,12.72
2023-08-12T03:28:15.669Z,12.70
2023-08-12T03:30:42.525Z,12.71
2023-08-12T03:33:09.443Z,12.61
2023-08-12T03:35:36.566Z,12.62
2023-08-12T03:38:03.479Z,12.55
2023-08-12T03:40:30.437Z,12.56
2023-08-12T03:42:57.274Z,12.54
2023-08-12T03:45:24.127Z,12.58
2023-08-12T03:47:51.009Z,12.59
2023-08-12T03:50:17.853Z,12.60
2023-08-12T03:52:44.681Z,12.58
2023-08-12T03:55:11.812Z,12.60
2023-08-12T03:57:38.620Z,12.60
2023-08-12T04:00:08.236Z,12.67
2023-08-12T04:02:37.403Z,12.67
2023-08-12T04:05:04.507Z,12.73
2023-08-12T04:07:32.859Z,12.70
2023-08-12T04:09:59.800Z,12.82
2023-08-12T04:12:26.778Z,12.95
2023-08-12T04:14:53.626Z,13.07
2023-08-12T04:17:20.516Z,13.23
2023-08-12T04:19:47.706Z,13.32
2023-08-12T04:22:14.504Z,13.41
2023-08-12T04:24:41.392Z,13.49
2023-08-12T04:27:08.590Z,13.67
2023-08-12T04:29:36.855Z,13.69
2023-08-12T04:32:03.816Z,13.76
2023-08-12T04:34:31.186Z,13.82
2023-08-12T04:36:58.266Z,13.91
2023-08-12T04:39:25.234Z,13.95
2023-08-12T04:41:52.123Z,13.96
2023-08-12T04:44:18.941Z,14.01
2023-08-12T04:46:45.954Z,14.08
2023-08-12T04:49:12.832Z,14.12
2023-08-12T04:51:39.659Z,14.15
2023-08-12T04:54:06.614Z,14.21
2023-08-12T04:56:33.463Z,14.34
2023-08-12T04:59:00.343Z,14.41
2023-08-12T05:01:27.378Z,14.53
2023-08-12T05:03:54.254Z,14.63
2023-08-12T05:06:21.156Z,14.78
2023-08-12T05:08:48.032Z,14.87
2023-08-12T05:11:14.860Z,14.91
2023-08-12T05:13:41.695Z,15.00
2023-08-12T05:16:08.569Z,15.06
2023-08-12T05:18:35.501Z,15.11
2023-08-12T05:21:02.344Z,15.21
2023-08-12T05:23:29.267Z,15.27
2023-08-12T05:28:40.616Z,15.42
2023-08-12T05:31:07.495Z,15.48
2023-08-12T05:33:34.529Z,15.60
2023-08-12T05:36:01.855Z,15.68
2023-08-12T05:38:28.678Z,15.78
2023-08-12T05:40:55.525Z,15.85
2023-08-12T05:43:22.346Z,15.97
2023-08-12T05:45:49.575Z,16.06
2023-08-12T05:48:16.449Z,16.14
2023-08-12T05:50:44.187Z,16.27
2023-08-12T05:53:11.081Z,16.39
2023-08-12T05:55:38.036Z,16.50
2023-08-12T05:58:05.935Z,16.56
2023-08-12T06:00:32.825Z,16.62
2023-08-12T06:02:59.658Z,16.72
2023-08-12T06:05:26.502Z,16.76
2023-08-12T06:07:53.353Z,16.89
2023-08-12T06:10:20.265Z,17.04
2023-08-12T06:12:47.115Z,17.05
2023-08-12T06:15:13.973Z,17.12
2023-08-12T06:17:40.865Z,17.24
2023-08-12T06:20:08.320Z,17.31
2023-08-12T06:22:35.260Z,17.40
2023-08-12T06:25:02.176Z,17.49
2023-08-12T06:27:29.222Z,17.57
2023-08-12T06:29:56.072Z,17.67
2023-08-12T06:32:22.926Z,17.71
2023-08-12T06:34:49.920Z,17.79
2023-08-12T06:37:16.867Z,17.93
2023-08-12T06:39:43.821Z,18.02
2023-08-12T06:42:11.006Z,18.09
2023-08-12T06:44:38.225Z,18.22
2023-08-12T06:47:05.142Z,18.26
2023-08-12T06:49:32.095Z,18.31
2023-08-12T06:51:58.979Z,18.44
2023-08-12T06:54:25.919Z,18.46
2023-08-12T06:56:52.738Z,18.63
2023-08-12T06:59:19.655Z,18.66
2023-08-12T07:01:46.655Z,18.73
2023-08-12T07:04:13.618Z,18.80
2023-08-12T07:06:40.572Z,18.94
2023-08-12T07:09:07.441Z,19.01
2023-08-12T07:11:34.636Z,19.10
2023-08-12T07:14:01.613Z,19.17
2023-08-12T07:16:28.499Z,19.27
2023-08-12T07:18:55.398Z,19.46
2023-08-12T07:21:22.323Z,19.56
2023-08-12T07:24:02.001Z,19.65
2023-08-12T07:26:30.552Z,19.80
2023-08-12T07:28:57.714Z,19.91
2023-08-12T07:31:24.661Z,20.04
2023-08-12T07:33:53.074Z,20.19
2023-08-12T07:36:20.053Z,20.23
2023-08-12T07:38:46.936Z,20.37
2023-08-12T07:41:13.785Z,20.42
2023-08-12T07:43:40.654Z,20.48
2023-08-12T07:46:09.965Z,20.53
2023-08-12T07:48:38.518Z,20.54
2023-08-12T07:51:05.436Z,20.54
2023-08-12T07:53:32.312Z,20.59
2023-08-12T07:55:59.097Z,20.72
2023-08-12T07:58:25.981Z,20.76
2023-08-12T08:00:56.109Z,20.79
2023-08-12T08:03:23.055Z,20.83
2023-08-12T08:05:49.956Z,21.00
2023-08-12T08:08:16.883Z,21.13
2023-08-12T08:10:44.581Z,21.26
2023-08-12T08:13:11.392Z,21.35
2023-08-12T08:15:38.878Z,21.46
2023-08-12T08:18:08.244Z,21.66
2023-08-12T08:20:35.361Z,21.76
2023-08-12T08:23:02.381Z,21.95
2023-08-12T08:25:29.180Z,21.95
2023-08-12T08:27:56.045Z,22.19
2023-08-12T08:30:24.048Z,22.56
2023-08-12T08:32:50.975Z,22.71
2023-08-12T08:35:18.190Z,23.01
2023-08-12T08:37:45.010Z,23.25
2023-08-12T08:40:13.174Z,23.42
2023-08-12T08:42:42.081Z,23.40
2023-08-12T08:45:13.923Z,23.90
2023-08-12T08:47:42.766Z,24.37
2023-08-12T08:50:11.198Z,25.14
2023-08-12T08:52:39.131Z,25.64
2023-08-12T08:55:08.210Z,26.32
2023-08-12T09:00:16.437Z,27.27
2023-08-12T09:02:47.366Z,27.60
2023-08-12T09:05:15.841Z,27.78
2023-08-12T09:07:43.540Z,28.04
2023-08-12T09:10:13.977Z,28.40
2023-08-12T09:12:43.338Z,29.10
2023-08-12T09:15:10.781Z,29.23
2023-08-12T09:17:38.354Z,29.55
2023-08-12T09:20:13.544Z,29.35
2023-08-12T09:22:44.417Z,29.24
2023-08-12T09:25:12.237Z,30.13
2023-08-12T09:27:39.759Z,30.00
2023-08-12T09:30:07.935Z,30.08
2023-08-12T09:32:39.878Z,30.74
2023-08-12T09:35:07.657Z,30.95
2023-08-12T09:37:34.543Z,30.89
2023-08-12T09:40:02.137Z,31.03
2023-08-12T09:42:29.285Z,30.80
2023-08-12T09:44:57.761Z,30.34
2023-08-12T09:47:28.200Z,30.93
2023-08-12T09:49:56.197Z,31.01
2023-08-12T09:52:23.469Z,31.58
2023-08-12T09:54:52.136Z,32.36
2023-08-12T09:57:21.436Z,32.62
2023-08-12T09:59:50.316Z,32.91
2023-08-12T10:02:21.067Z,31.98
2023-08-12T10:04:52.039Z,32.21
2023-08-12T10:07:20.324Z,32.38
2023-08-12T10:09:47.852Z,33.08
2023-08-12T10:12:19.061Z,33.37
2023-08-12T10:14:48.540Z,33.70
2023-08-12T10:17:21.476Z,32.76
2023-08-12T10:19:59.210Z,32.89
2023-08-12T10:22:30.655Z,33.45
2023-08-12T10:25:03.495Z,33.80
2023-08-12T10:27:30.701Z,33.72
2023-08-12T10:29:58.786Z,33.84
2023-08-12T10:32:30.788Z,34.17
2023-08-12T10:34:58.753Z,34.33
2023-08-12T10:37:28.873Z,34.80
2023-08-12T10:39:55.930Z,35.25
2023-08-12T10:42:48.068Z,35.56
2023-08-12T10:45:17.372Z,35.65
2023-08-12T10:48:05.571Z,34.56
2023-08-12T10:50:33.109Z,33.90
2023-08-12T10:52:59.906Z,34.87
2023-08-12T10:55:28.446Z,34.62
2023-08-12T10:57:59.102Z,35.72
2023-08-12T11:00:30.288Z,35.62
2023-08-12T11:02:58.413Z,35.40
2023-08-12T11:05:36.925Z,35.67
2023-08-12T11:08:07.141Z,35.55
2023-08-12T11:10:35.790Z,35.54
2023-08-12T11:13:04.420Z,36.16
2023-08-12T11:15:38.749Z,34.90
2023-08-12T11:18:06.674Z,35.15
2023-08-12T11:20:34.649Z,36.28
2023-08-12T11:23:02.517Z,36.25
2023-08-12T11:25:31.142Z,36.16
2023-08-12T11:27:58.616Z,36.59
2023-08-12T11:30:26.173Z,37.00
2023-08-12T11:32:54.902Z,37.06
2023-08-12T11:35:23.583Z,36.00
2023-08-12T11:37:59.530Z,34.89
2023-08-12T11:40:28.616Z,34.64
2023-08-12T11:42:56.133Z,35.53
2023-08-12T11:45:27.410Z,36.01
2023-08-12T11:47:54.939Z,35.64
2023-08-12T11:50:24.949Z,35.44
2023-08-12T11:52:53.252Z,35.53
2023-08-12T11:55:20.398Z,37.17
2023-08-12T11:57:47.551Z,37.92
2023-08-12T12:00:16.606Z,37.73
2023-08-12T12:02:52.312Z,37.73
2023-08-12T12:05:24.593Z,37.33
2023-08-12T12:07:52.862Z,36.30
2023-08-12T12:10:23.260Z,36.37
2023-08-12T12:12:50.443Z,36.38
2023-08-12T12:15:17.460Z,36.78
2023-08-12T12:17:47.274Z,36.32
2023-08-12T12:20:15.559Z,36.90
2023-08-12T12:22:47.268Z,36.69
2023-08-12T12:25:15.832Z,36.27
2023-08-12T12:27:44.131Z,37.68
2023-08-12T12:30:13.032Z,37.41
2023-08-12T12:32:40.993Z,36.65
2023-08-12T12:35:08.720Z,37.48
2023-08-12T12:37:36.464Z,37.12
2023-08-12T12:40:04.442Z,37.15
2023-08-12T12:42:32.067Z,36.43
2023-08-12T12:44:59.049Z,36.71
2023-08-12T12:47:26.001Z,36.21
2023-08-12T12:49:52.843Z,37.01
2023-08-12T12:52:19.702Z,37.35
2023-08-12T12:54:46.582Z,37.78
2023-08-12T12:57:13.383Z,36.61
2023-08-12T12:59:40.344Z,37.62
2023-08-12T13:02:07.262Z,38.79
2023-08-12T13:04:34.075Z,38.95
2023-08-12T13:07:01.902Z,38.72
2023-08-12T13:09:28.817Z,38.25
2023-08-12T13:11:58.290Z,38.48
2023-08-12T13:14:25.652Z,38.55
2023-08-12T13:16:52.629Z,38.69
2023-08-12T13:19:19.524Z,37.73
2023-08-12T13:21:46.421Z,38.19
2023-08-12T13:24:13.459Z,37.63
2023-08-12T13:26:40.295Z,38.57
2023-08-12T13:29:07.405Z,37.84
2023-08-12T13:31:34.490Z,38.29
2023-08-12T13:34:01.596Z,37.78
2023-08-12T13:36:28.500Z,39.06
2023-08-12T13:38:55.459Z,38.47
2023-08-12T13:41:23.076Z,39.07
2023-08-12T13:43:49.976Z,38.73
2023-08-12T13:46:16.906Z,38.59
2023-08-12T13:48:43.780Z,37.61
2023-08-12T13:51:10.882Z,38.34
2023-08-12T13:53:37.758Z,37.94
2023-08-12T13:56:05.164Z,37.98
2023-08-12T13:58:32.124Z,38.41
2023-08-12T14:00:59.045Z,38.02
2023-08-12T14:03:26.085Z,36.80
2023-08-12T14:05:53.223Z,37.14
2023-08-12T14:08:20.261Z,37.51
2023-08-12T14:10:48.713Z,37.34
2023-08-12T14:13:15.588Z,37.69
2023-08-12T14:15:42.536Z,38.04
2023-08-12T14:18:09.480Z,38.36
2023-08-12T14:20:36.728Z,38.11
2023-08-12T14:23:03.636Z,38.36
2023-08-12T14:25:31.211Z,38.36
2023-08-12T14:27:58.147Z,38.51
2023-08-12T14:30:29.156Z,39.02
2023-08-12T14:32:56.108Z,38.17
2023-08-12T14:35:23.140Z,38.17
2023-08-12T14:37:50.109Z,38.70
2023-08-12T14:40:17.072Z,39.07
2023-08-12T14:42:44.012Z,38.45
2023-08-12T14:45:11.637Z,37.14
2023-08-12T14:47:38.564Z,37.66
2023-08-12T14:50:05.910Z,38.58
2023-08-12T14:52:34.777Z,38.36
2023-08-12T14:55:01.911Z,37.84
2023-08-12T14:57:28.859Z,37.19
2023-08-12T14:59:55.710Z,37.51
2023-08-12T15:02:25.741Z,37.73
2023-08-12T15:04:52.776Z,36.63
2023-08-12T15:07:21.313Z,37.32
2023-08-12T15:09:48.715Z,37.00
2023-08-12T15:12:15.611Z,37.32
2023-08-12T15:14:42.541Z,35.17
2023-08-12T15:17:09.491Z,36.21
2023-08-12T15:19:36.401Z,36.86
2023-08-12T15:22:03.336Z,36.66
2023-08-12T15:24:30.245Z,37.19
2023-08-12T15:26:57.108Z,36.80
2023-08-12T15:29:24.051Z,36.49
2023-08-12T15:31:51.412Z,36.80
2023-08-12T15:34:18.530Z,36.52
2023-08-12T15:36:45.739Z,36.57
2023-08-12T15:39:12.976Z,36.57
2023-08-12T15:41:44.736Z,37.21
2023-08-12T15:44:12.775Z,37.01
2023-08-12T15:46:41.019Z,37.31
2023-08-12T15:49:11.814Z,37.06
2023-08-12T15:51:39.853Z,36.78
2023-08-12T15:54:07.540Z,36.01
2023-08-12T15:56:37.601Z,35.30
2023-08-12T15:59:06.044Z,34.58
2023-08-12T16:01:33.824Z,33.46
2023-08-12T16:04:01.138Z,33.19
2023-08-12T16:06:28.167Z,32.85
2023-08-12T16:09:14.956Z,32.54
2023-08-12T16:11:42.020Z,32.16
2023-08-12T16:14:08.931Z,31.85
2023-08-12T16:16:35.828Z,31.39
2023-08-12T16:19:03.479Z,31.00
2023-08-12T16:21:30.832Z,30.91
2023-08-12T16:23:57.817Z,30.69
2023-08-12T16:26:24.786Z,30.64
2023-08-12T16:28:51.809Z,30.51
2023-08-12T16:31:18.903Z,30.26
2023-08-12T16:33:45.866Z,30.00
2023-08-12T16:36:12.721Z,30.01
2023-08-12T16:38:40.067Z,30.08
2023-08-12T16:41:06.971Z,29.88
2023-08-12T16:43:33.949Z,30.01
2023-08-12T16:46:00.928Z,30.13
2023-08-12T16:48:27.839Z,30.35
2023-08-12T16:50:54.682Z,30.46
2023-08-12T16:53:21.839Z,30.44
2023-08-12T16:55:49.066Z,30.21
2023-08-12T16:58:15.875Z,30.00
2023-08-12T17:00:43.778Z,29.76
2023-08-12T17:03:10.889Z,29.44
2023-08-12T17:05:37.740Z,29.20
2023-08-12T17:08:04.894Z,28.97
2023-08-12T17:10:31.840Z,28.82
2023-08-12T17:12:58.721Z,28.75
2023-08-12T17:15:25.910Z,28.61
2023-08-12T17:17:52.804Z,28.44
2023-08-12T17:20:19.789Z,28.33
2023-08-12T17:22:46.638Z,28.24
2023-08-12T17:25:13.590Z,28.11
2023-08-12T17:27:40.517Z,28.09
2023-08-12T17:30:08.004Z,27.99
2023-08-12T17:32:35.358Z,27.85
2023-08-12T17:35:02.277Z,27.63
2023-08-12T17:37:29.219Z,27.29
2023-08-12T17:39:56.138Z,27.01
2023-08-12T17:42:23.037Z,26.90
2023-08-12T17:44:49.885Z,26.74
2023-08-12T17:47:17.803Z,26.59
2023-08-12T17:49:44.831Z,26.46
2023-08-12T17:52:12.241Z,26.33
2023-08-12T17:54:39.398Z,26.23
2023-08-12T17:57:06.344Z,26.08
2023-08-12T17:59:33.678Z,25.96
2023-08-12T18:02:00.690Z,25.83
2023-08-12T18:04:27.639Z,25.74
2023-08-12T18:06:54.506Z,25.62
2023-08-12T18:09:21.721Z,25.47
2023-08-12T18:11:48.627Z,25.33
2023-08-12T18:14:15.841Z,25.01
2023-08-12T18:16:42.960Z,24.92
2023-08-12T18:19:09.927Z,24.69
2023-08-12T18:21:36.802Z,24.63
2023-08-12T18:24:03.815Z,24.56
2023-08-12T18:26:30.860Z,24.43
2023-08-12T18:28:57.870Z,24.37
2023-08-12T18:31:24.813Z,24.30
2023-08-12T18:33:51.985Z,24.27
2023-08-12T18:36:18.893Z,24.11
2023-08-12T18:38:47.048Z,23.82
2023-08-12T18:41:14.040Z,23.78
2023-08-12T18:43:40.937Z,23.73
2023-08-12T18:46:07.994Z,23.72
2023-08-12T18:48:34.931Z,23.64
2023-08-12T18:51:01.996Z,23.53
2023-08-12T18:53:30.758Z,23.34
2023-08-12T18:55:58.081Z,23.14
2023-08-12T18:58:25.288Z,23.02
2023-08-12T19:00:52.248Z,23.01
2023-08-12T19:03:19.281Z,22.94
2023-08-12T19:05:48.299Z,22.85
2023-08-12T19:08:16.964Z,22.75
2023-08-12T19:10:45.316Z,22.58
2023-08-12T19:13:12.298Z,22.53
2023-08-12T19:15:39.567Z,22.51
2023-08-12T19:18:06.668Z,22.44
2023-08-12T19:20:33.650Z,22.19
2023-08-12T19:23:00.537Z,21.95
2023-08-12T19:25:27.588Z,22.02
2023-08-12T19:27:54.613Z,21.98
2023-08-12T19:30:22.381Z,22.00
2023-08-12T19:32:55.985Z,21.98
2023-08-12T19:35:23.350Z,21.93
2023-08-12T19:37:52.964Z,21.91
2023-08-12T19:40:20.459Z,21.84
2023-08-12T19:42:47.926Z,21.77
2023-08-12T19:45:15.456Z,21.67
2023-08-12T19:47:44.322Z,21.58
2023-08-12T19:50:13.525Z,21.58
2023-08-12T19:52:40.565Z,21.56
2023-08-12T19:55:09.277Z,21.44
2023-08-12T19:57:36.680Z,21.43
2023-08-12T20:00:05.974Z,21.40
2023-08-12T20:02:39.372Z,21.32
2023-08-12T20:05:16.481Z,21.29
2023-08-12T20:07:46.713Z,21.19
2023-08-12T20:10:19.144Z,21.07
2023-08-12T20:12:47.569Z,21.03
2023-08-12T20:15:14.730Z,20.97
2023-08-12T20:17:43.056Z,20.84
2023-08-12T20:20:18.321Z,20.83
2023-08-12T20:22:59.672Z,20.81
2023-08-12T20:25:31.095Z,20.74
2023-08-12T20:27:59.458Z,20.70
2023-08-12T20:30:27.186Z,20.61
2023-08-12T20:32:55.726Z,20.61
2023-08-12T20:35:23.970Z,20.47
2023-08-12T20:37:51.289Z,20.37
2023-08-12T20:40:19.713Z,20.37
2023-08-12T20:42:47.316Z,20.28
2023-08-12T20:45:14.895Z,20.23
2023-08-12T20:47:43.322Z,20.13
2023-08-12T20:50:11.056Z,20.05
2023-08-12T20:52:37.986Z,20.08
2023-08-12T20:55:05.532Z,20.06
2023-08-12T20:57:32.697Z,19.99
2023-08-12T21:00:02.711Z,19.99
2023-08-12T21:02:30.704Z,19.84
2023-08-12T21:04:57.981Z,19.63
2023-08-12T21:07:24.972Z,19.65
2023-08-12T21:09:51.858Z,19.55
2023-08-12T21:12:18.738Z,19.58
2023-08-12T21:14:45.574Z,19.55
2023-08-12T21:17:12.593Z,19.56
2023-08-12T21:19:39.597Z,19.51
2023-08-12T21:22:06.587Z,19.45
2023-08-12T21:24:33.517Z,19.38
2023-08-12T21:27:00.487Z,19.38
2023-08-12T21:29:27.441Z,19.38
2023-08-12T21:31:54.429Z,19.26
2023-08-12T21:34:21.468Z,19.17
2023-08-12T21:36:48.323Z,19.15
2023-08-12T21:39:15.189Z,19.16
2023-08-12T21:41:42.172Z,19.09
2023-08-12T21:44:09.218Z,19.06
2023-08-12T21:46:36.090Z,19.03
2023-08-12T21:49:03.076Z,19.01
2023-08-12T21:51:29.933Z,18.86
2023-08-12T21:53:56.880Z,18.84
2023-08-12T21:56:23.724Z,18.88
2023-08-12T21:58:50.572Z,18.73
2023-08-12T22:01:17.461Z,18.72
2023-08-12T22:03:44.492Z,18.65
2023-08-12T22:06:12.022Z,18.63
2023-08-12T22:08:39.038Z,18.62
2023-08-12T22:11:06.829Z,18.58
2023-08-12T22:13:33.825Z,18.56
2023-08-12T22:16:00.825Z,18.48
2023-08-12T22:18:27.775Z,18.51
2023-08-12T22:20:55.368Z,18.44
2023-08-12T22:23:23.524Z,18.39
2023-08-12T22:25:51.545Z,18.36
2023-08-12T22:28:21.549Z,18.23
2023-08-12T22:30:49.082Z,18.28
2023-08-12T22:33:16.465Z,18.17
2023-08-12T22:35:43.634Z,18.18
2023-08-12T22:38:10.869Z,18.01
2023-08-12T22:40:37.805Z,18.07
2023-08-12T22:43:04.845Z,18.01
2023-08-12T22:45:34.770Z,18.01
2023-08-12T22:48:01.654Z,17.94
2023-08-12T22:50:28.582Z,17.89
2023-08-12T22:52:55.425Z,17.81
2023-08-12T22:55:22.354Z,17.83
2023-08-12T22:57:49.556Z,17.86
2023-08-12T23:00:16.597Z,17.81
2023-08-12T23:02:43.949Z,17.70
2023-08-12T23:05:11.448Z,17.58
2023-08-12T23:07:38.451Z,17.48
2023-08-12T23:10:06.163Z,17.45
2023-08-12T23:12:33.668Z,17.53
2023-08-12T23:15:00.648Z,17.43
2023-08-12T23:17:27.588Z,17.48
2023-08-12T23:19:54.404Z,17.40
2023-08-12T23:22:21.304Z,17.38
2023-08-12T23:24:48.177Z,17.37
2023-08-12T23:27:15.101Z,17.46
2023-08-12T23:29:41.962Z,17.39
2023-08-12T23:32:09.323Z,17.29
2023-08-12T23:34:36.201Z,17.28
2023-08-12T23:37:03.287Z,17.19
2023-08-12T23:39:31.874Z,17.10
2023-08-12T23:41:59.132Z,17.11
2023-08-12T23:44:26.061Z,17.13
2023-08-12T23:46:53.039Z,17.04
2023-08-12T23:49:20.193Z,17.03
2023-08-12T23:51:48.767Z,16.98
2023-08-12T23:54:15.698Z,16.89
2023-08-12T23:56:42.664Z,16.89
2023-08-12T23:59:09.610Z,16.84
